Time,TemperatureF,DewpointF,PressureIn,WindDirection,WindDirectionDegrees,WindSpeedMPH,WindSpeedGustMPH,Humidity,HourlyPrecipIn,Conditions,Clouds,dailyrainin,SoftwareType,DateUTC
2013-10-06 00:00:00,59.2,58.3,30.02,SSW,197,0.0,0.0,97,0.00,,,0.00,Wunderground v.1.15,2013-10-06 04:00:00,
2013-10-06 00:05:00,59.0,58.2,30.02,SSW,197,0.0,0.0,97,0.00,,,0.00,Wunderground v.1.15,2013-10-06 04:05:00,
2013-10-06 00:10:00,59.0,58.4,30.02,SSW,197,0.0,0.0,98,0.00,,,0.00,Wunderground v.1.15,2013-10-06 04:10:00,
2013-10-06 00:15:00,59.0,58.4,30.02,SSW,197,0.0,0.0,98,0.00,,,0.00,Wunderground v.1.15,2013-10-06 04:15:00,
2013-10-06 00:20:00,59.0,58.4,30.02,SSW,197,0.0,0.0,98,0.00,,,0.00,Wunderground v.1.15,2013-10-06 04:20:00,
2013-10-06 00:30:00,58.7,57.9,30.01,SSW,197,0.0,0.0,97,0.00,,,0.00,Wunderground v.1.15,2013-10-06 04:30:00,
2013-10-06 00:40:00,58.4,57.8,30.02,SSW,197,0.0,0.0,98,0.00,,,0.00,Wunderground v.1.15,2013-10-06 04:40:00,
2013-10-06 00:45:00,58.4,57.8,30.01,SSW,197,0.0,0.0,98,0.00,,,0.00,Wunderground v.1.15,2013-10-06 04:45:00,
2013-10-06 00:50:00,58.3,57.5,30.01,SSW,197,0.0,0.0,97,0.00,,,0.00,Wunderground v.1.15,2013-10-06 04:50:00,
2013-10-06 01:00:00,58.0,57.2,30.01,SSW,197,0.0,0.0,97,0.00,,,0.00,Wunderground v.1.15,2013-10-06 05:00:00,
2013-10-06 01:05:00,57.6,56.8,30.01,SSW,197,0.0,0.0,97,0.00,,,0.00,Wunderground v.1.15,2013-10-06 05:05:00,
2013-10-06 01:10:00,57.5,56.9,30.00,SSW,197,0.0,0.0,98,0.00,,,0.00,Wunderground v.1.15,2013-10-06 05:10:00,
2013-10-06 01:20:00,57.3,56.7,30.01,SSW,197,0.0,0.0,98,0.00,,,0.00,Wunderground v.1.15,2013-10-06 05:20:00,
2013-10-06 01:25:00,57.2,56.6,30.01,SSW,197,0.0,0.0,98,0.00,,,0.00,Wunderground v.1.15,2013-10-06 05:25:00,
2013-10-06 01:31:00,57.0,56.4,30.00,SSW,197,0.0,0.0,98,0.00,,,0.00,Wunderground v.1.15,2013-10-06 05:31:00,
2013-10-06 01:40:00,56.7,56.1,30.00,SSW,197,0.0,0.0,98,0.00,,,0.00,Wunderground v.1.15,2013-10-06 05:40:00,
2013-10-06 01:50:00,56.5,55.9,30.00,SSW,197,0.0,0.0,98,0.00,,,0.00,Wunderground v.1.15,2013-10-06 05:50:00,
2013-10-06 02:00:00,56.3,55.7,30.00,SSW,197,0.0,0.0,98,0.00,,,0.00,Wunderground v.1.15,2013-10-06 06:00:00,
2013-10-06 02:10:00,56.3,56.0,30.00,SSW,197,0.0,0.0,99,0.00,,,0.00,Wunderground v.1.15,2013-10-06 06:10:00,
2013-10-06 02:20:00,56.5,56.2,30.00,SSW,197,0.0,0.0,99,0.00,,,0.00,Wunderground v.1.15,2013-10-06 06:20:00,
2013-10-06 02:30:00,56.3,55.7,30.00,SSW,197,0.0,0.0,98,0.00,,,0.00,Wunderground v.1.15,2013-10-06 06:30:00,
2013-10-06 02:40:00,56.2,55.6,29.99,SSW,197,0.0,0.0,98,0.00,,,0.00,Wunderground v.1.15,2013-10-06 06:40:00,
2013-10-06 02:45:00,56.0,55.7,29.99,SSW,197,0.0,0.0,99,0.00,,,0.00,Wunderground v.1.15,2013-10-06 06:45:00,
2013-10-06 02:50:00,55.9,55.6,29.99,SSW,197,0.0,0.0,99,0.00,,,0.00,Wunderground v.1.15,2013-10-06 06:50:00,
2013-10-06 03:00:00,55.9,55.6,29.99,SSW,197,0.0,0.0,99,0.00,,,0.00,Wunderground v.1.15,2013-10-06 07:00:00,
2013-10-06 03:10:00,55.9,55.6,29.99,SSW,197,0.0,0.0,99,0.00,,,0.00,Wunderground v.1.15,2013-10-06 07:10:00,
2013-10-06 03:20:00,55.7,55.4,29.99,SSW,197,0.0,0.0,99,0.00,,,0.00,Wunderground v.1.15,2013-10-06 07:20:00,
2013-10-06 03:30:00,55.7,55.4,29.98,SSW,197,0.0,0.0,99,0.00,,,0.00,Wunderground v.1.15,2013-10-06 07:30:00,
2013-10-06 03:35:00,55.4,55.1,29.98,SSW,197,0.0,0.0,99,0.00,,,0.00,Wunderground v.1.15,2013-10-06 07:35:00,
2013-10-06 03:45:00,55.4,55.1,29.98,SSW,197,0.0,0.0,99,0.00,,,0.00,Wunderground v.1.15,2013-10-06 07:45:00,
2013-10-06 03:55:00,55.1,54.8,29.97,SSW,197,0.0,0.0,99,0.00,,,0.00,Wunderground v.1.15,2013-10-06 07:55:00,
2013-10-06 04:05:00,55.4,55.1,29.97,SSW,197,0.0,0.0,99,0.00,,,0.00,Wunderground v.1.15,2013-10-06 08:05:00,
2013-10-06 04:10:00,55.4,55.1,29.97,SSW,197,0.0,0.0,99,0.00,,,0.00,Wunderground v.1.15,2013-10-06 08:10:00,
2013-10-06 04:15:00,55.3,55.0,29.97,SSW,197,0.0,0.0,99,0.00,,,0.00,Wunderground v.1.15,2013-10-06 08:15:00,
2013-10-06 04:20:00,55.3,55.0,29.97,SSW,197,0.0,0.0,99,0.00,,,0.00,Wunderground v.1.15,2013-10-06 08:20:00,
2013-10-06 04:25:00,55.1,54.8,29.97,SSW,197,0.0,0.0,99,0.00,,,0.00,Wunderground v.1.15,2013-10-06 08:25:00,
2013-10-06 04:30:00,55.0,54.7,29.97,SSW,197,0.0,0.0,99,0.00,,,0.00,Wunderground v.1.15,2013-10-06 08:30:00,
2013-10-06 04:40:00,54.7,54.4,29.97,SSW,197,0.0,0.0,99,0.00,,,0.00,Wunderground v.1.15,2013-10-06 08:40:00,
2013-10-06 04:50:00,54.2,53.9,29.97,SSW,197,0.0,0.0,99,0.00,,,0.00,Wunderground v.1.15,2013-10-06 08:50:00,
2013-10-06 04:55:00,54.2,54.2,29.97,SSW,197,0.0,0.0,100,0.00,,,0.00,Wunderground v.1.15,2013-10-06 08:55:00,
2013-10-06 05:05:00,54.4,54.4,29.97,SSW,197,0.0,0.0,100,0.00,,,0.00,Wunderground v.1.15,2013-10-06 09:05:00,
2013-10-06 05:15:00,54.2,54.2,29.97,SSW,197,0.0,0.0,100,0.00,,,0.00,Wunderground v.1.15,2013-10-06 09:15:00,
2013-10-06 05:20:00,54.4,54.4,29.97,SSW,197,0.0,0.0,100,0.00,,,0.00,Wunderground v.1.15,2013-10-06 09:20:00,
2013-10-06 05:30:00,54.1,54.1,29.97,SSW,197,0.0,0.0,100,0.00,,,0.00,Wunderground v.1.15,2013-10-06 09:30:00,
2013-10-06 05:40:00,53.8,53.8,29.97,SSW,197,0.0,0.0,100,0.00,,,0.00,Wunderground v.1.15,2013-10-06 09:40:00,
2013-10-06 05:50:00,53.8,53.8,29.98,SSW,197,0.0,0.0,100,0.00,,,0.00,Wunderground v.1.15,2013-10-06 09:50:00,
2013-10-06 06:00:00,53.8,53.8,29.98,SSW,197,0.0,0.0,100,0.00,,,0.00,Wunderground v.1.15,2013-10-06 10:00:00,
2013-10-06 06:10:00,53.6,53.6,29.98,SSW,197,0.0,0.0,100,0.00,,,0.00,Wunderground v.1.15,2013-10-06 10:10:00,
2013-10-06 06:20:00,53.6,53.6,29.97,SSW,197,0.0,0.0,100,0.00,,,0.00,Wunderground v.1.15,2013-10-06 10:20:00,
2013-10-06 06:30:00,53.3,53.3,29.98,SSW,197,0.0,0.0,100,0.00,,,0.00,Wunderground v.1.15,2013-10-06 10:30:00,
2013-10-06 06:40:00,53.8,53.8,29.98,SSW,197,0.0,0.0,100,0.00,,,0.00,Wunderground v.1.15,2013-10-06 10:40:00,
2013-10-06 06:50:00,54.1,54.1,29.98,SSW,197,0.0,0.0,100,0.00,,,0.00,Wunderground v.1.15,2013-10-06 10:50:00,
2013-10-06 06:55:00,53.9,53.9,29.98,SSW,197,0.0,0.0,100,0.00,,,0.00,Wunderground v.1.15,2013-10-06 10:55:00,
2013-10-06 07:00:00,53.8,53.8,29.98,SSW,197,0.0,0.0,100,0.00,,,0.00,Wunderground v.1.15,2013-10-06 11:00:00,
2013-10-06 07:10:00,53.6,53.6,29.99,SSW,197,0.0,0.0,100,0.00,,,0.00,Wunderground v.1.15,2013-10-06 11:10:00,
2013-10-06 07:20:00,53.5,53.5,29.99,SSW,197,0.0,0.0,100,0.00,,,0.00,Wunderground v.1.15,2013-10-06 11:20:00,
2013-10-06 07:25:00,53.3,53.3,29.99,SSW,197,0.0,0.0,100,0.00,,,0.00,Wunderground v.1.15,2013-10-06 11:25:00,
2013-10-06 07:30:00,53.3,53.3,29.99,SSW,197,0.0,0.0,100,0.00,,,0.00,Wunderground v.1.15,2013-10-06 11:30:00,
2013-10-06 07:40:00,53.2,53.2,29.99,SSW,197,0.0,0.0,100,0.00,,,0.00,Wunderground v.1.15,2013-10-06 11:40:00,
2013-10-06 07:45:00,53.3,53.3,29.99,SSW,197,0.0,0.0,100,0.00,,,0.00,Wunderground v.1.15,2013-10-06 11:45:00,
2013-10-06 07:50:00,53.5,53.5,29.99,SSW,197,0.0,0.0,100,0.00,,,0.00,Wunderground v.1.15,2013-10-06 11:50:00,
2013-10-06 08:00:00,53.8,53.8,29.99,SSW,197,0.0,0.0,100,0.00,,,0.00,Wunderground v.1.15,2013-10-06 12:00:00,
2013-10-06 08:10:00,54.2,54.2,29.99,SSW,197,0.0,0.0,100,0.00,,,0.00,Wunderground v.1.15,2013-10-06 12:10:00,
2013-10-06 08:15:00,54.5,54.5,29.99,SSW,197,0.0,0.0,100,0.00,,,0.00,Wunderground v.1.15,2013-10-06 12:15:00,
2013-10-06 08:20:00,54.7,54.7,29.99,SSW,197,0.0,0.0,100,0.00,,,0.00,Wunderground v.1.15,2013-10-06 12:20:00,
2013-10-06 08:25:00,55.0,55.0,29.99,SSW,197,0.0,0.0,100,0.00,,,0.00,Wunderground v.1.15,2013-10-06 12:25:00,
2013-10-06 08:35:00,56.3,56.3,29.99,SSW,197,0.0,0.0,100,0.00,,,0.00,Wunderground v.1.15,2013-10-06 12:35:00,
2013-10-06 08:40:00,56.9,56.9,29.98,SSW,197,0.0,0.0,100,0.00,,,0.00,Wunderground v.1.15,2013-10-06 12:40:00,
2013-10-06 08:50:00,58.1,58.1,29.98,SE,146,0.0,0.0,100,0.00,,,0.00,Wunderground v.1.15,2013-10-06 12:50:00,
2013-10-06 09:00:00,58.7,58.7,29.98,SE,146,0.0,0.0,100,0.00,,,0.00,Wunderground v.1.15,2013-10-06 13:00:00,
2013-10-06 09:05:00,59.2,59.2,29.98,SE,146,0.0,0.0,100,0.00,,,0.00,Wunderground v.1.15,2013-10-06 13:05:00,
2013-10-06 09:10:00,59.5,59.5,29.98,SE,146,0.0,0.0,100,0.00,,,0.01,Wunderground v.1.15,2013-10-06 13:10:00,
2013-10-06 09:20:00,60.2,60.2,29.98,SE,146,0.0,0.0,100,0.00,,,0.01,Wunderground v.1.15,2013-10-06 13:20:00,
2013-10-06 09:25:00,60.7,60.7,29.98,SE,146,0.0,0.0,100,0.00,,,0.01,Wunderground v.1.15,2013-10-06 13:25:00,
2013-10-06 09:35:00,61.3,61.3,29.98,SE,146,0.0,0.0,100,0.00,,,0.01,Wunderground v.1.15,2013-10-06 13:35:00,
2013-10-06 09:40:00,61.8,61.8,29.98,SE,146,0.0,0.0,100,0.00,,,0.01,Wunderground v.1.15,2013-10-06 13:40:00,
2013-10-06 09:50:00,63.1,62.8,29.98,SE,146,0.0,0.0,99,0.00,,,0.01,Wunderground v.1.15,2013-10-06 13:50:00,
2013-10-06 09:55:00,63.7,63.4,29.97,SE,146,0.0,0.0,99,0.00,,,0.01,Wunderground v.1.15,2013-10-06 13:55:00,
2013-10-06 10:00:00,64.8,64.2,29.98,SE,146,0.0,0.0,98,0.00,,,0.01,Wunderground v.1.15,2013-10-06 14:00:00,
2013-10-06 10:10:00,66.4,64.6,29.97,SE,146,0.0,0.0,94,0.00,,,0.01,Wunderground v.1.15,2013-10-06 14:10:00,
2013-10-06 10:20:00,67.1,63.7,29.97,SE,146,0.0,0.0,89,0.00,,,0.01,Wunderground v.1.15,2013-10-06 14:20:00,
2013-10-06 10:30:00,67.9,63.2,29.97,SE,146,0.0,0.0,85,0.00,,,0.01,Wunderground v.1.15,2013-10-06 14:30:00,
2013-10-06 10:40:00,69.4,64.7,29.97,SE,146,0.0,0.0,85,0.00,,,0.01,Wunderground v.1.15,2013-10-06 14:40:00,
2013-10-06 10:50:00,71.1,63.9,29.97,SW,220,2.0,3.0,78,0.00,,,0.01,Wunderground v.1.15,2013-10-06 14:50:00,
2013-10-06 11:00:00,71.8,63.8,29.96,South,182,1.0,1.0,76,0.00,,,0.01,Wunderground v.1.15,2013-10-06 15:00:00,
2013-10-06 11:10:00,72.7,63.9,29.96,WSW,238,1.0,1.0,74,0.00,,,0.01,Wunderground v.1.15,2013-10-06 15:10:00,
2013-10-06 11:15:00,73.0,63.8,29.96,SSE,163,1.0,1.0,73,0.00,,,0.01,Wunderground v.1.15,2013-10-06 15:15:00,
2013-10-06 11:25:00,73.5,65.1,29.96,SSE,163,0.0,5.0,75,0.00,,,0.01,Wunderground v.1.15,2013-10-06 15:25:00,
2013-10-06 11:30:00,73.9,64.3,29.96,SW,230,1.0,3.0,72,0.00,,,0.01,Wunderground v.1.15,2013-10-06 15:30:00,
2013-10-06 11:40:00,74.6,64.2,29.95,South,176,4.0,4.0,70,0.00,,,0.01,Wunderground v.1.15,2013-10-06 15:40:00,
2013-10-06 11:45:00,74.7,63.9,29.95,SSW,196,2.0,4.0,69,0.00,,,0.01,Wunderground v.1.15,2013-10-06 15:45:00,
2013-10-06 11:55:00,74.9,64.0,29.95,SSW,196,3.0,4.0,69,0.00,,,0.01,Wunderground v.1.15,2013-10-06 15:55:00,
2013-10-06 12:05:00,75.3,63.6,29.94,South,189,2.0,3.0,67,0.00,,,0.01,Wunderground v.1.15,2013-10-06 16:05:00,
2013-10-06 12:15:00,75.4,64.1,29.94,SW,223,3.0,8.0,68,0.00,,,0.01,Wunderground v.1.15,2013-10-06 16:15:00,
2013-10-06 12:25:00,75.1,63.8,29.94,SSW,207,0.0,2.0,68,0.00,,,0.01,Wunderground v.1.15,2013-10-06 16:25:00,
2013-10-06 12:35:00,76.0,63.4,29.93,South,175,1.0,1.0,65,0.00,,,0.01,Wunderground v.1.15,2013-10-06 16:35:00,
2013-10-06 12:45:00,77.0,64.3,29.93,SSE,158,1.0,1.0,65,0.00,,,0.01,Wunderground v.1.15,2013-10-06 16:45:00,
2013-10-06 12:50:00,77.6,62.6,29.93,SW,229,2.0,2.0,60,0.00,,,0.01,Wunderground v.1.15,2013-10-06 16:50:00,
2013-10-06 13:00:00,77.9,61.4,29.92,South,188,2.0,4.0,57,0.00,,,0.01,Wunderground v.1.15,2013-10-06 17:00:00,
2013-10-06 13:11:00,78.3,63.7,29.92,South,179,3.0,4.0,61,0.00,,,0.01,Wunderground v.1.15,2013-10-06 17:11:00,
2013-10-06 13:20:00,77.6,63.5,29.92,SSW,209,1.0,4.0,62,0.00,,,0.01,Wunderground v.1.15,2013-10-06 17:20:00,
2013-10-06 13:25:00,77.7,62.2,29.92,South,180,1.0,1.0,59,0.00,,,0.01,Wunderground v.1.15,2013-10-06 17:25:00,
2013-10-06 13:35:00,77.2,61.8,29.91,South,185,1.0,1.0,59,0.00,,,0.01,Wunderground v.1.15,2013-10-06 17:35:00,
2013-10-06 13:40:00,77.2,61.3,29.91,South,185,1.0,1.0,58,0.00,,,0.01,Wunderground v.1.15,2013-10-06 17:40:00,
2013-10-06 13:45:00,77.2,61.8,29.90,South,190,1.0,1.0,59,0.00,,,0.01,Wunderground v.1.15,2013-10-06 17:45:00,
2013-10-06 13:50:00,77.4,61.9,29.90,SSE,165,2.0,4.0,59,0.00,,,0.01,Wunderground v.1.15,2013-10-06 17:50:00,
2013-10-06 14:00:00,77.6,60.2,29.89,SSE,155,1.0,1.0,55,0.00,,,0.01,Wunderground v.1.15,2013-10-06 18:00:00,
2013-10-06 14:05:00,77.0,59.6,29.89,South,178,1.0,2.0,55,0.00,,,0.01,Wunderground v.1.15,2013-10-06 18:05:00,
2013-10-06 14:10:00,77.9,60.9,29.89,SSE,165,2.0,4.0,56,0.00,,,0.01,Wunderground v.1.15,2013-10-06 18:10:00,
2013-10-06 14:15:00,79.0,60.4,29.88,South,182,2.0,4.0,53,0.00,,,0.01,Wunderground v.1.15,2013-10-06 18:15:00,
2013-10-06 14:20:00,79.2,61.1,29.88,South,170,1.0,1.0,54,0.00,,,0.01,Wunderground v.1.15,2013-10-06 18:20:00,
2013-10-06 14:30:00,80.1,60.9,29.88,South,182,2.0,5.0,52,0.00,,,0.01,Wunderground v.1.15,2013-10-06 18:30:00,
2013-10-06 14:40:00,79.8,60.6,29.88,South,181,2.0,2.0,52,0.00,,,0.01,Wunderground v.1.15,2013-10-06 18:40:00,
2013-10-06 14:50:00,79.6,61.0,29.87,ESE,106,2.0,2.0,53,0.00,,,0.01,Wunderground v.1.15,2013-10-06 18:50:00,
2013-10-06 15:00:00,79.2,59.5,29.86,SSE,162,1.0,1.0,51,0.00,,,0.01,Wunderground v.1.15,2013-10-06 19:00:00,
2013-10-06 15:05:00,79.9,59.6,29.86,South,174,2.0,3.0,50,0.00,,,0.01,Wunderground v.1.15,2013-10-06 19:05:00,
2013-10-06 15:15:00,78.8,59.7,29.86,South,178,2.0,2.0,52,0.00,,,0.01,Wunderground v.1.15,2013-10-06 19:15:00,
2013-10-06 15:25:00,80.3,59.4,29.86,SSE,157,1.0,1.0,49,0.00,,,0.01,Wunderground v.1.15,2013-10-06 19:25:00,
2013-10-06 15:35:00,80.5,59.0,29.85,SSE,159,2.0,2.0,48,0.00,,,0.01,Wunderground v.1.15,2013-10-06 19:35:00,
2013-10-06 15:45:00,81.2,60.2,29.85,SSW,196,1.0,10.0,49,0.00,,,0.01,Wunderground v.1.15,2013-10-06 19:45:00,
2013-10-06 15:51:00,81.1,61.3,29.85,SE,142,1.0,1.0,51,0.00,,,0.01,Wunderground v.1.15,2013-10-06 19:51:00,
2013-10-06 16:00:00,81.1,61.8,29.85,South,171,1.0,1.0,52,0.00,,,0.01,Wunderground v.1.15,2013-10-06 20:00:00,
2013-10-06 16:05:00,81.1,60.1,29.84,SE,126,1.0,1.0,49,0.00,,,0.01,Wunderground v.1.15,2013-10-06 20:05:00,
2013-10-06 16:10:00,80.9,61.1,29.84,SSW,205,1.0,4.0,51,0.00,,,0.01,Wunderground v.1.15,2013-10-06 20:10:00,
2013-10-06 16:15:00,79.6,59.3,29.85,South,175,2.0,4.0,50,0.00,,,0.01,Wunderground v.1.15,2013-10-06 20:15:00,
2013-10-06 16:20:00,79.9,60.7,29.84,SSE,163,1.0,1.0,52,0.00,,,0.01,Wunderground v.1.15,2013-10-06 20:20:00,
2013-10-06 16:25:00,80.3,60.5,29.84,SE,143,1.0,1.0,51,0.00,,,0.01,Wunderground v.1.15,2013-10-06 20:25:00,
2013-10-06 16:30:00,80.1,60.9,29.84,South,188,1.0,1.0,52,0.00,,,0.01,Wunderground v.1.15,2013-10-06 20:30:00,
2013-10-06 16:40:00,79.2,60.1,29.84,SSE,159,1.0,1.0,52,0.00,,,0.01,Wunderground v.1.15,2013-10-06 20:40:00,
2013-10-06 16:50:00,77.7,59.7,29.84,South,181,1.0,1.0,54,0.00,,,0.01,Wunderground v.1.15,2013-10-06 20:50:00,
2013-10-06 17:00:00,76.8,60.9,29.84,SSE,161,1.0,1.0,58,0.00,,,0.01,Wunderground v.1.15,2013-10-06 21:00:00,
2013-10-06 17:05:00,77.6,59.6,29.84,SSE,161,0.0,7.0,54,0.00,,,0.01,Wunderground v.1.15,2013-10-06 21:05:00,
2013-10-06 17:10:00,77.6,59.6,29.84,SSE,167,1.0,1.0,54,0.00,,,0.01,Wunderground v.1.15,2013-10-06 21:10:00,
2013-10-06 17:15:00,77.9,59.4,29.84,SSE,165,2.0,4.0,53,0.00,,,0.01,Wunderground v.1.15,2013-10-06 21:15:00,
2013-10-06 17:20:00,78.1,60.1,29.84,SSE,163,2.0,2.0,54,0.00,,,0.01,Wunderground v.1.15,2013-10-06 21:20:00,
2013-10-06 17:30:00,77.6,59.1,29.84,SSE,148,2.0,2.0,53,0.00,,,0.01,Wunderground v.1.15,2013-10-06 21:30:00,
2013-10-06 17:35:00,77.4,58.9,29.84,SSE,152,2.0,3.0,53,0.00,,,0.01,Wunderground v.1.15,2013-10-06 21:35:00,
2013-10-06 17:40:00,77.2,59.8,29.84,SSE,165,2.0,3.0,55,0.00,,,0.01,Wunderground v.1.15,2013-10-06 21:40:00,
2013-10-06 17:45:00,76.7,59.3,29.84,SSE,167,2.0,3.0,55,0.00,,,0.01,Wunderground v.1.15,2013-10-06 21:45:00,
2013-10-06 17:50:00,76.1,58.8,29.84,SSE,165,2.0,2.0,55,0.00,,,0.01,Wunderground v.1.15,2013-10-06 21:50:00,
2013-10-06 17:55:00,76.1,59.3,29.84,South,190,3.0,3.0,56,0.00,,,0.01,Wunderground v.1.15,2013-10-06 21:55:00,
2013-10-06 18:00:00,76.1,59.3,29.84,South,180,3.0,4.0,56,0.00,,,0.01,Wunderground v.1.15,2013-10-06 22:00:00,
2013-10-06 18:10:00,75.8,59.0,29.84,South,185,2.0,2.0,56,0.00,,,0.01,Wunderground v.1.15,2013-10-06 22:10:00,
2013-10-06 18:20:00,75.1,58.3,29.84,South,181,2.0,2.0,56,0.00,,,0.01,Wunderground v.1.15,2013-10-06 22:20:00,
2013-10-06 18:30:00,74.0,58.3,29.84,South,173,1.0,1.0,58,0.00,,,0.01,Wunderground v.1.15,2013-10-06 22:30:00,
2013-10-06 18:40:00,73.0,58.3,29.83,South,173,0.0,0.0,60,0.00,,,0.01,Wunderground v.1.15,2013-10-06 22:40:00,
2013-10-06 18:50:00,72.3,58.5,29.84,South,173,0.0,0.0,62,0.00,,,0.01,Wunderground v.1.15,2013-10-06 22:50:00,
2013-10-06 18:55:00,72.0,58.3,29.83,South,173,0.0,0.0,62,0.00,,,0.01,Wunderground v.1.15,2013-10-06 22:55:00,
2013-10-06 19:00:00,71.6,58.3,29.84,South,173,0.0,0.0,63,0.00,,,0.01,Wunderground v.1.15,2013-10-06 23:00:00,
2013-10-06 19:06:00,71.3,58.5,29.84,South,173,0.0,0.0,64,0.00,,,0.01,Wunderground v.1.15,2013-10-06 23:06:00,
2013-10-06 19:15:00,71.1,58.3,29.83,WSW,240,0.0,0.0,64,0.00,,,0.01,Wunderground v.1.15,2013-10-06 23:15:00,
2013-10-06 19:20:00,70.9,58.1,29.84,WSW,238,0.0,0.0,64,0.00,,,0.01,Wunderground v.1.15,2013-10-06 23:20:00,
2013-10-06 19:30:00,70.8,58.4,29.84,SSE,164,0.0,3.0,65,0.00,,,0.01,Wunderground v.1.15,2013-10-06 23:30:00,
2013-10-06 19:40:00,70.6,58.3,29.84,SSE,164,0.0,0.0,65,0.00,,,0.01,Wunderground v.1.15,2013-10-06 23:40:00,
2013-10-06 19:50:00,70.4,58.9,29.84,South,188,0.0,0.0,67,0.00,,,0.01,Wunderground v.1.15,2013-10-06 23:50:00,
2013-10-06 20:00:00,70.3,59.2,29.84,South,170,0.0,2.0,68,0.00,,,0.01,Wunderground v.1.15,2013-10-07 00:00:00,
2013-10-06 20:10:00,70.1,59.5,29.84,South,170,0.0,0.0,69,0.00,,,0.01,Wunderground v.1.15,2013-10-07 00:10:00,
2013-10-06 20:15:00,69.9,59.7,29.84,SSE,167,0.0,0.0,70,0.00,,,0.01,Wunderground v.1.15,2013-10-07 00:15:00,
2013-10-06 20:20:00,69.8,60.0,29.83,SE,134,0.0,6.0,71,0.00,,,0.01,Wunderground v.1.15,2013-10-07 00:20:00,
2013-10-06 20:30:00,70.1,60.3,29.83,SSE,165,1.0,4.0,71,0.00,,,0.01,Wunderground v.1.15,2013-10-07 00:30:00,
2013-10-06 20:40:00,69.9,60.1,29.83,SSE,167,1.0,1.0,71,0.00,,,0.01,Wunderground v.1.15,2013-10-07 00:40:00,
2013-10-06 20:50:00,69.8,60.0,29.84,SSE,167,0.0,0.0,71,0.00,,,0.01,Wunderground v.1.15,2013-10-07 00:50:00,
2013-10-06 21:00:00,69.4,60.0,29.83,SSE,167,0.0,0.0,72,0.00,,,0.01,Wunderground v.1.15,2013-10-07 01:00:00,
2013-10-06 21:10:00,69.8,60.0,29.83,SSE,167,1.0,1.0,71,0.00,,,0.01,Wunderground v.1.15,2013-10-07 01:10:00,
2013-10-06 21:15:00,69.9,60.1,29.83,SSE,167,1.0,1.0,71,0.00,,,0.01,Wunderground v.1.15,2013-10-07 01:15:00,
2013-10-06 21:25:00,69.8,60.0,29.83,SSE,163,1.0,1.0,71,0.00,,,0.01,Wunderground v.1.15,2013-10-07 01:25:00,
2013-10-06 21:35:00,69.4,59.6,29.84,SSE,163,0.0,3.0,71,0.00,,,0.01,Wunderground v.1.15,2013-10-07 01:35:00,
2013-10-06 21:40:00,69.4,59.6,29.84,SSE,163,1.0,1.0,71,0.00,,,0.01,Wunderground v.1.15,2013-10-07 01:40:00,
2013-10-06 21:45:00,69.4,59.6,29.84,SSE,163,1.0,1.0,71,0.00,,,0.01,Wunderground v.1.15,2013-10-07 01:45:00,
2013-10-06 21:50:00,69.4,59.6,29.84,SSE,163,1.0,1.0,71,0.00,,,0.01,Wunderground v.1.15,2013-10-07 01:50:00,
2013-10-06 21:55:00,69.4,59.6,29.84,SSE,165,1.0,1.0,71,0.00,,,0.01,Wunderground v.1.15,2013-10-07 01:55:00,
2013-10-06 22:00:00,69.4,59.6,29.84,SSE,163,1.0,1.0,71,0.00,,,0.01,Wunderground v.1.15,2013-10-07 02:00:00,
2013-10-06 22:10:00,69.1,59.7,29.84,SSE,163,0.0,0.0,72,0.00,,,0.01,Wunderground v.1.15,2013-10-07 02:10:00,
2013-10-06 22:20:00,68.3,59.7,29.84,SSE,163,0.0,0.0,74,0.00,,,0.01,Wunderground v.1.15,2013-10-07 02:20:00,
2013-10-06 22:25:00,67.8,59.6,29.84,SSE,163,0.0,0.0,75,0.00,,,0.01,Wunderground v.1.15,2013-10-07 02:25:00,
2013-10-06 22:30:00,67.8,59.2,29.84,SSE,163,0.0,0.0,74,0.00,,,0.01,Wunderground v.1.15,2013-10-07 02:30:00,
2013-10-06 22:35:00,67.8,59.2,29.84,SSE,163,0.0,0.0,74,0.00,,,0.01,Wunderground v.1.15,2013-10-07 02:35:00,
2013-10-06 22:40:00,67.8,59.2,29.84,SSE,163,0.0,0.0,74,0.00,,,0.01,Wunderground v.1.15,2013-10-07 02:40:00,
2013-10-06 22:50:00,67.4,59.6,29.84,SSE,163,0.0,0.0,76,0.00,,,0.01,Wunderground v.1.15,2013-10-07 02:50:00,
2013-10-06 22:55:00,67.6,59.4,29.84,SSE,163,0.0,0.0,75,0.00,,,0.01,Wunderground v.1.15,2013-10-07 02:55:00,
2013-10-06 23:00:00,67.9,59.7,29.83,SSE,165,0.0,0.0,75,0.00,,,0.01,Wunderground v.1.15,2013-10-07 03:00:00,
2013-10-06 23:05:00,68.3,59.7,29.83,SSE,165,1.0,1.0,74,0.00,,,0.01,Wunderground v.1.15,2013-10-07 03:05:00,
2013-10-06 23:10:00,68.4,59.8,29.83,SSE,165,0.0,0.0,74,0.00,,,0.01,Wunderground v.1.15,2013-10-07 03:10:00,
2013-10-06 23:20:00,68.8,59.8,29.83,SSE,165,0.0,0.0,73,0.00,,,0.01,Wunderground v.1.15,2013-10-07 03:20:00,
2013-10-06 23:25:00,68.8,59.8,29.83,SSE,165,0.0,0.0,73,0.00,,,0.01,Wunderground v.1.15,2013-10-07 03:25:00,
2013-10-06 23:30:00,68.6,59.6,29.83,SSE,165,0.0,0.0,73,0.00,,,0.01,Wunderground v.1.15,2013-10-07 03:30:00,
2013-10-06 23:35:00,68.6,60.0,29.83,SSE,165,0.0,0.0,74,0.00,,,0.01,Wunderground v.1.15,2013-10-07 03:35:00,
2013-10-06 23:45:00,67.9,60.1,29.82,SSE,165,0.0,0.0,76,0.00,,,0.01,Wunderground v.1.15,2013-10-07 03:45:00,
2013-10-06 23:55:00,67.6,59.8,29.82,SSE,165,0.0,0.0,76,0.00,,,0.01,Wunderground v.1.15,2013-10-07 03:55:00,